Time;durP1;ratioP1;P1;durP2;ratioP2;P2;SDS_P1;SDS_P2;PMS_P1;PMS_P2;Temp;Humidity;BMP_temperature;BMP_pressure;BME280_temperature;BME280_humidity;BME280_pressure;Samples;Min_cycle;Max_cycle;Signal;HPM_P1;HPM_P2
2022/03/22 00:00:50;;;;;;;4.85;3.38;;;;;;;15.79;21.13;98230.03;5113663;28;20051;-30
2022/03/22 00:03:17;;;;;;;5.30;2.70;;;;;;;15.75;20.89;98234.78;5113580;28;20022;-28
2022/03/22 00:05:44;;;;;;;4.90;3.05;;;;;;;15.70;21.24;98235.22;5113855;28;20034;-29
2022/03/22 00:08:11;;;;;;;3.75;2.90;;;;;;;15.72;21.50;98226.63;5113665;28;20126;-29
2022/03/22 00:10:38;;;;;;;3.30;2.78;;;;;;;15.72;21.12;98227.38;5113869;28;20388;-28
2022/03/22 00:13:05;;;;;;;4.53;3.13;;;;;;;15.75;21.12;98225.78;5113732;28;20019;-28
2022/03/22 00:15:32;;;;;;;6.88;2.78;;;;;;;15.69;21.18;98222.78;5113427;28;20030;-28
2022/03/22 00:17:58;;;;;;;3.28;2.83;;;;;;;15.71;21.13;98227.81;5113726;28;20372;-29
2022/03/22 00:20:23;;;;;;;3.97;2.83;;;;;;;15.66;20.91;98217.34;5115153;28;20027;-28
2022/03/22 00:22:49;;;;;;;3.45;2.75;;;;;;;15.62;21.40;98220.13;5117667;28;20038;-28
2022/03/22 00:25:16;;;;;;;3.42;2.65;;;;;;;15.69;20.83;98222.00;5117613;28;20077;-29
2022/03/22 00:27:52;;;;;;;5.30;3.10;;;;;;;15.75;20.74;98226.56;5117462;28;20023;-28
2022/03/22 00:30:24;;;;;;;3.78;2.72;;;;;;;15.70;21.23;98220.81;5117577;28;20023;-29
2022/03/22 00:32:54;;;;;;;5.60;3.15;;;;;;;15.74;20.94;98227.75;5117571;28;20494;-28
2022/03/22 00:35:29;;;;;;;4.15;2.83;;;;;;;15.75;20.59;98225.78;5117577;28;20420;-28
2022/03/22 00:37:56;;;;;;;5.03;3.15;;;;;;;15.67;20.64;98235.31;5117427;28;20474;-28
2022/03/22 00:40:24;;;;;;;4.10;2.85;;;;;;;15.62;20.81;98233.03;5117210;28;20027;-28
2022/03/22 00:42:52;;;;;;;4.50;3.03;;;;;;;15.62;20.51;98231.06;5117617;28;20380;-29
2022/03/22 00:45:20;;;;;;;4.85;2.97;;;;;;;15.65;20.44;98233.00;5116960;28;20103;-29
2022/03/22 00:47:48;;;;;;;4.57;3.03;;;;;;;15.66;21.03;98233.75;5117234;28;20023;-30
2022/03/22 00:50:16;;;;;;;3.83;3.15;;;;;;;15.62;20.82;98224.84;5117039;28;20039;-29
2022/03/22 00:52:43;;;;;;;3.95;2.88;;;;;;;15.61;20.79;98223.28;5116980;28;20026;-28
2022/03/22 00:55:10;;;;;;;6.22;3.20;;;;;;;15.66;20.55;98228.28;5117014;28;20076;-30
2022/03/22 00:57:36;;;;;;;5.55;3.47;;;;;;;15.67;20.73;98227.88;5116923;28;20024;-29
2022/03/22 01:00:06;;;;;;;3.88;3.20;;;;;;;15.59;20.94;98222.91;5116763;28;20085;-28
2022/03/22 01:02:35;;;;;;;4.13;2.95;;;;;;;15.58;20.69;98218.66;5098486;28;20024;-28
2022/03/22 01:05:04;;;;;;;3.95;3.10;;;;;;;15.62;20.51;98213.91;5116662;28;20023;-28
2022/03/22 01:07:30;;;;;;;4.32;3.08;;;;;;;15.66;20.74;98222.81;5116495;28;20028;-28
2022/03/22 01:09:56;;;;;;;4.38;3.08;;;;;;;15.56;20.89;98219.09;5116802;28;20072;-29
2022/03/22 01:12:22;;;;;;;4.05;3.00;;;;;;;15.59;20.65;98223.69;5116497;28;20480;-28
2022/03/22 01:14:49;;;;;;;4.72;3.05;;;;;;;15.60;21.00;98214.31;5117069;28;20020;-28
2022/03/22 01:17:15;;;;;;;4.20;3.17;;;;;;;15.55;20.54;98206.59;5116461;28;20387;-29
2022/03/22 01:19:40;;;;;;;3.80;3.00;;;;;;;15.56;20.63;98210.09;5116324;28;20028;-28
2022/03/22 01:22:06;;;;;;;4.88;3.28;;;;;;;15.58;20.58;98208.47;5116448;28;20373;-28
2022/03/22 01:24:32;;;;;;;4.55;3.20;;;;;;;15.53;20.52;98208.16;5116420;28;20042;-28
2022/03/22 01:26:58;;;;;;;3.53;2.80;;;;;;;15.55;20.28;98206.59;5116246;28;20019;-28
2022/03/22 01:29:23;;;;;;;5.68;3.33;;;;;;;15.53;20.76;98202.69;5116222;28;20041;-27
2022/03/22 01:31:50;;;;;;;4.75;3.35;;;;;;;15.47;20.78;98207.84;5116482;28;20078;-27
2022/03/22 01:34:16;;;;;;;5.50;3.05;;;;;;;15.54;20.41;98206.97;5116220;28;20015;-30
2022/03/22 01:36:41;;;;;;;4.63;3.63;;;;;;;15.55;20.60;98211.28;5116356;28;20098;-29
2022/03/22 01:39:07;;;;;;;5.07;3.63;;;;;;;15.48;20.83;98211.34;5116040;28;20047;-29
2022/03/22 01:41:33;;;;;;;3.80;3.13;;;;;;;15.49;20.70;98212.91;5115996;28;20023;-28
2022/03/22 01:43:59;;;;;;;5.25;3.25;;;;;;;15.49;20.79;98208.22;5115827;28;20353;-28
2022/03/22 01:46:25;;;;;;;5.32;3.63;;;;;;;15.53;20.94;98208.94;5115914;28;20026;-28
2022/03/22 01:48:52;;;;;;;5.05;3.33;;;;;;;15.54;20.80;98209.72;5115844;28;20023;-28
2022/03/22 01:51:21;;;;;;;5.00;3.45;;;;;;;15.48;20.71;98211.34;5115938;28;20046;-28
2022/03/22 01:53:48;;;;;;;4.68;3.20;;;;;;;15.46;20.30;98207.06;5115605;28;20124;-29
2022/03/22 01:56:14;;;;;;;4.45;3.30;;;;;;;15.48;21.01;98216.81;5115840;28;20077;-29
2022/03/22 01:58:40;;;;;;;4.30;3.33;;;;;;;15.51;20.88;98210.53;5115801;28;20024;-29
2022/03/22 02:06:36;;;;;;;3.80;3.40;;;;;;;15.47;21.06;98205.13;5115624;28;20026;-29
2022/03/22 02:09:03;;;;;;;5.43;3.42;;;;;;;15.44;20.89;98200.50;5115719;28;20028;-29
2022/03/22 02:11:29;;;;;;;5.07;3.15;;;;;;;15.49;20.79;98196.50;5115406;28;20068;-28
2022/03/22 02:13:56;;;;;;;5.57;3.35;;;;;;;15.44;20.43;98195.81;5115543;28;20020;-29
2022/03/22 02:16:22;;;;;;;3.50;3.05;;;;;;;15.42;20.77;98198.19;5115459;28;20088;-29
2022/03/22 02:18:50;;;;;;;4.25;3.10;;;;;;;15.35;20.97;98198.28;5115287;28;20473;-28
2022/03/22 02:21:18;;;;;;;3.90;3.10;;;;;;;15.43;20.60;98198.94;5115311;28;20426;-30
2022/03/22 02:23:49;;;;;;;4.38;3.17;;;;;;;15.41;21.30;98188.44;5115610;28;20535;-28
2022/03/22 02:26:16;;;;;;;5.03;3.63;;;;;;;15.38;20.55;98192.00;5115521;28;20027;-29
2022/03/22 02:28:42;;;;;;;5.78;3.30;;;;;;;15.38;20.63;98186.50;5115268;28;20069;-28
2022/03/22 02:31:08;;;;;;;4.82;3.40;;;;;;;15.32;20.50;98187.41;5115190;28;20027;-28
2022/03/22 02:33:33;;;;;;;4.45;3.65;;;;;;;15.35;20.48;98183.84;5115201;28;20030;-28
2022/03/22 02:35:59;;;;;;;5.43;3.45;;;;;;;15.36;20.43;98180.69;5115019;28;20020;-28
2022/03/22 02:38:25;;;;;;;4.15;3.30;;;;;;;15.32;20.73;98188.19;5114986;28;20441;-28
2022/03/22 02:40:50;;;;;;;4.70;3.45;;;;;;;15.34;20.72;98185.03;5114843;28;20077;-29
2022/03/22 02:43:17;;;;;;;3.70;3.20;;;;;;;15.32;20.64;98185.47;5114203;28;20114;-28
2022/03/22 02:45:42;;;;;;;5.47;3.30;;;;;;;15.36;20.36;98185.38;5114736;28;20023;-30
2022/03/22 02:48:08;;;;;;;4.18;3.30;;;;;;;15.29;20.61;98183.56;5096648;28;20516;-28
2022/03/22 02:50:33;;;;;;;4.35;3.50;;;;;;;15.30;20.46;98178.84;5114579;28;20027;-28
2022/03/22 02:53:01;;;;;;;6.13;3.50;;;;;;;15.31;20.44;98175.72;5114737;28;20016;-28
2022/03/22 02:55:26;;;;;;;4.90;3.50;;;;;;;15.32;20.23;98187.41;5114555;28;20473;-29
2022/03/22 02:57:52;;;;;;;4.22;3.30;;;;;;;15.29;20.43;98177.31;5114486;28;20108;-28
2022/03/22 03:00:17;;;;;;;4.75;3.10;;;;;;;15.28;20.66;98176.53;5096056;28;20047;-28
2022/03/22 03:02:48;;;;;;;3.90;2.95;;;;;;;15.31;20.96;98175.72;5114391;28;20055;-27
2022/03/22 03:05:14;;;;;;;3.38;3.03;;;;;;;15.28;20.48;98179.28;5114490;28;20028;-28
2022/03/22 03:07:39;;;;;;;4.53;2.80;;;;;;;15.31;20.32;98177.66;5114421;28;20482;-30
2022/03/22 03:10:06;;;;;;;3.58;2.90;;;;;;;15.26;20.57;98178.91;5114456;28;20034;-29
2022/03/22 03:12:32;;;;;;;5.00;3.45;;;;;;;15.31;20.44;98181.19;5114155;28;20498;-28
2022/03/22 03:14:57;;;;;;;3.97;3.35;;;;;;;15.26;20.17;98178.13;5114400;28;20031;-28
2022/03/22 03:17:23;;;;;;;4.97;2.92;;;;;;;15.24;20.43;98181.28;5114477;28;20065;-28
2022/03/22 03:19:48;;;;;;;4.72;3.42;;;;;;;15.20;20.42;98188.00;5114122;28;20030;-30
2022/03/22 03:22:14;;;;;;;3.90;2.85;;;;;;;15.29;20.59;98185.50;5114230;28;20027;-28
2022/03/22 03:24:40;;;;;;;3.80;3.00;;;;;;;15.30;20.59;98190.56;5113984;28;20027;-28
2022/03/22 03:27:05;;;;;;;4.03;2.90;;;;;;;15.23;20.34;98185.19;5095762;28;20020;-28
2022/03/22 03:29:31;;;;;;;3.90;3.00;;;;;;;15.23;20.36;98187.94;5114124;28;20449;-29
2022/03/22 03:31:57;;;;;;;4.32;2.95;;;;;;;15.27;20.74;98185.91;5114084;28;20076;-28
2022/03/22 03:34:22;;;;;;;4.55;3.13;;;;;;;15.27;20.83;98188.66;5113843;28;20023;-30
2022/03/22 03:36:48;;;;;;;4.07;3.20;;;;;;;15.27;20.52;98188.66;5114071;28;20031;-28
2022/03/22 03:39:14;;;;;;;5.90;3.28;;;;;;;15.29;20.53;98191.75;5113829;28;20096;-28
2022/03/22 03:41:59;;;;;;;4.97;3.05;;;;;;;15.24;20.41;98194.16;5113996;28;20027;-28
2022/03/22 03:47:16;;;;;;;4.97;3.10;;;;;;;15.23;20.79;98195.34;5114160;28;20034;-28
2022/03/22 03:49:50;;;;;;;4.57;3.22;;;;;;;15.23;20.62;98207.06;5113922;28;20035;-28
2022/03/22 03:52:19;;;;;;;4.07;3.05;;;;;;;15.19;20.52;98198.16;5113733;28;20031;-28
2022/03/22 03:54:45;;;;;;;4.40;3.30;;;;;;;15.25;20.60;98198.44;5114262;28;20042;-28
2022/03/22 03:57:12;;;;;;;4.50;2.95;;;;;;;15.22;20.71;98200.03;5118065;28;20035;-28
2022/03/22 03:59:39;;;;;;;4.95;3.42;;;;;;;15.24;20.52;98203.13;5099526;28;20456;-29
2022/03/22 04:02:08;;;;;;;4.40;3.03;;;;;;;15.15;20.73;98211.09;5118533;28;20482;-28
2022/03/22 04:04:38;;;;;;;4.03;3.13;;;;;;;15.15;20.31;98205.63;5117914;28;20024;-28
2022/03/22 04:07:05;;;;;;;4.95;3.20;;;;;;;15.14;20.84;98203.31;5117778;28;20023;-28
2022/03/22 04:09:35;;;;;;;6.35;2.75;;;;;;;15.14;20.47;98204.06;5117923;28;20027;-28
2022/03/22 04:12:02;;;;;;;4.93;3.55;;;;;;;15.16;20.40;98201.72;5118038;28;20031;-28
2022/03/22 04:14:27;;;;;;;4.55;3.40;;;;;;;15.15;20.33;98204.84;5117809;28;20068;-28
2022/03/22 04:16:53;;;;;;;4.80;3.20;;;;;;;15.14;20.47;98203.31;5117719;28;20024;-29
2022/03/22 04:19:19;;;;;;;5.55;3.33;;;;;;;15.13;20.76;98209.94;5117639;28;20469;-28
2022/03/22 04:21:45;;;;;;;4.53;2.95;;;;;;;15.19;20.65;98205.59;5117797;28;20031;-28
2022/03/22 04:24:11;;;;;;;4.45;3.00;;;;;;;15.19;20.79;98213.78;5117461;28;20031;-28
2022/03/22 04:26:42;;;;;;;6.32;3.63;;;;;;;15.19;20.43;98217.28;5117615;28;20459;-29
2022/03/22 04:34:41;;;;;;;6.90;3.42;;;;;;;15.14;20.46;98217.75;5117425;28;20026;-28
2022/03/22 04:37:08;;;;;;;5.43;3.47;;;;;;;15.16;20.58;98223.56;5117567;28;20023;-29
2022/03/22 04:39:35;;;;;;;3.88;2.83;;;;;;;15.14;20.65;98223.22;5117418;28;20051;-28
2022/03/22 04:42:01;;;;;;;4.38;3.33;;;;;;;15.14;20.68;98214.25;5117113;28;20247;-30
2022/03/22 04:44:29;;;;;;;3.83;3.10;;;;;;;15.14;20.98;98220.47;5117074;28;20482;-28
2022/03/22 04:46:56;;;;;;;6.70;3.40;;;;;;;15.11;20.93;98221.28;5117395;28;20424;-30
2022/03/22 04:49:22;;;;;;;4.07;3.35;;;;;;;15.18;20.71;98223.94;5117016;28;20023;-28
2022/03/22 04:57:17;;;;;;;4.75;3.35;;;;;;;15.19;20.40;98227.44;5117101;28;20026;-28
2022/03/22 04:59:43;;;;;;;6.32;3.22;;;;;;;15.15;20.57;98222.03;5116751;28;20043;-29
2022/03/22 05:02:10;;;;;;;4.03;3.10;;;;;;;15.11;20.66;98229.50;5098676;28;20076;-28
2022/03/22 05:04:36;;;;;;;4.03;3.03;;;;;;;15.06;20.82;98225.28;5116779;28;20058;-27
2022/03/22 05:07:02;;;;;;;4.63;3.10;;;;;;;15.15;20.46;98235.69;5098243;28;20023;-27
2022/03/22 05:09:28;;;;;;;5.63;3.67;;;;;;;15.15;20.73;98243.13;5116603;28;20023;-28
2022/03/22 05:11:55;;;;;;;4.35;3.10;;;;;;;15.16;20.73;98237.25;5116684;28;20165;-28
2022/03/22 05:14:22;;;;;;;4.10;3.25;;;;;;;15.14;20.37;98238.84;5116580;28;20031;-28
2022/03/22 05:16:47;;;;;;;4.32;3.05;;;;;;;15.05;20.78;98245.59;5116578;28;20031;-28
2022/03/22 05:19:16;;;;;;;4.63;3.00;;;;;;;15.10;20.58;98244.34;5116815;28;20146;-28
2022/03/22 05:21:42;;;;;;;4.63;2.95;;;;;;;15.15;20.24;98241.16;5116369;28;20039;-28
2022/03/22 05:24:08;;;;;;;5.43;3.28;;;;;;;15.10;20.61;98249.81;5116291;28;20072;-28
2022/03/22 05:26:35;;;;;;;4.50;3.05;;;;;;;15.17;20.48;98240.75;5116428;28;20478;-29
2022/03/22 05:29:04;;;;;;;6.15;3.42;;;;;;;15.06;20.48;98251.84;5116708;28;20031;-28
2022/03/22 05:31:31;;;;;;;4.43;3.47;;;;;;;15.04;20.44;98237.81;5116193;28;20100;-29
2022/03/22 05:33:57;;;;;;;4.28;3.17;;;;;;;15.05;20.73;98244.81;5116225;28;20020;-29
2022/03/22 05:36:22;;;;;;;4.53;3.10;;;;;;;15.02;20.64;98246.41;5116250;28;20108;-29
2022/03/22 05:38:48;;;;;;;4.82;3.15;;;;;;;15.09;20.67;98240.84;5116071;28;20019;-29
2022/03/22 05:41:14;;;;;;;4.72;3.15;;;;;;;15.08;20.85;98238.53;5116055;28;20386;-27
2022/03/22 05:43:40;;;;;;;5.30;3.00;;;;;;;15.08;20.85;98252.19;5116324;28;20065;-28
2022/03/22 05:46:05;;;;;;;4.07;3.20;;;;;;;15.10;21.09;98252.53;5115959;28;20074;-27
2022/03/22 05:48:31;;;;;;;5.10;3.35;;;;;;;14.98;20.91;98244.91;5097612;28;20104;-28
2022/03/22 05:50:57;;;;;;;4.65;3.50;;;;;;;15.09;21.03;98243.56;5119175;27;20023;-27
2022/03/22 05:53:23;;;;;;;4.28;3.42;;;;;;;15.02;20.76;98240.94;5134326;27;20031;-28
2022/03/22 05:55:48;;;;;;;4.07;2.92;;;;;;;15.08;20.78;98244.00;5134472;27;20023;-28
2022/03/22 05:58:14;;;;;;;4.63;3.70;;;;;;;15.05;20.91;98244.81;5134524;27;20030;-29
2022/03/22 06:00:40;;;;;;;5.00;3.35;;;;;;;15.04;20.80;98246.00;5133520;27;20515;-27
2022/03/22 06:03:05;;;;;;;5.65;3.83;;;;;;;15.01;20.63;98244.09;5133901;27;20023;-28
2022/03/22 06:05:31;;;;;;;6.95;3.92;;;;;;;14.99;20.73;98247.22;5132197;27;20038;-29
2022/03/22 06:07:58;;;;;;;7.78;4.28;;;;;;;15.01;20.81;98246.81;5115494;27;20467;-28
2022/03/22 06:10:24;;;;;;;7.60;3.67;;;;;;;15.00;20.78;98248.00;5134191;27;20071;-28
2022/03/22 06:12:52;;;;;;;8.27;3.85;;;;;;;15.11;20.84;98243.16;5134032;27;20034;-28
2022/03/22 06:15:19;;;;;;;7.57;3.95;;;;;;;14.98;20.73;98245.66;5133726;27;20020;-28
2022/03/22 06:17:49;;;;;;;5.97;3.70;;;;;;;14.91;21.09;98237.59;5132909;27;20019;-30
2022/03/22 06:20:16;;;;;;;6.78;3.90;;;;;;;14.96;20.88;98242.56;5115388;27;20479;-29
2022/03/22 06:22:42;;;;;;;6.88;3.78;;;;;;;15.03;20.93;98244.44;5133926;27;20027;-28
2022/03/22 06:25:09;;;;;;;7.43;4.35;;;;;;;14.96;20.85;98247.28;5133834;27;20027;-28
2022/03/22 06:27:35;;;;;;;9.15;4.03;;;;;;;15.12;20.99;98243.94;5133384;27;20027;-28
2022/03/22 06:30:04;;;;;;;8.55;4.30;;;;;;;15.06;21.17;98254.56;5133664;27;20030;-28
2022/03/22 06:32:29;;;;;;;9.88;4.00;;;;;;;15.00;21.07;98253.47;5133677;27;20045;-29
2022/03/22 06:34:55;;;;;;;9.50;4.30;;;;;;;15.05;21.14;98251.06;5133570;27;20015;-29
2022/03/22 06:37:21;;;;;;;8.23;4.75;;;;;;;15.10;21.12;98258.00;5133489;27;20034;-28
2022/03/22 06:39:47;;;;;;;6.97;4.50;;;;;;;15.04;21.12;98252.25;5133173;27;20425;-28
2022/03/22 06:42:13;;;;;;;10.98;4.45;;;;;;;15.00;21.24;98251.50;5133341;27;20076;-28
2022/03/22 06:44:40;;;;;;;8.27;4.30;;;;;;;15.02;21.42;98251.09;5133333;27;20054;-28
2022/03/22 06:47:06;;;;;;;9.98;4.35;;;;;;;15.07;21.08;98250.66;5133152;27;20443;-29
2022/03/22 06:49:31;;;;;;;7.88;4.03;;;;;;;14.99;21.78;98257.38;5133319;27;20062;-29
2022/03/22 06:51:57;;;;;;;7.30;4.38;;;;;;;15.04;21.48;98265.13;5133072;27;20110;-29
2022/03/22 06:54:23;;;;;;;7.07;4.50;;;;;;;15.08;21.39;98254.94;5133198;27;20046;-28
2022/03/22 06:56:48;;;;;;;8.30;4.13;;;;;;;15.06;21.42;98257.31;5133158;27;20527;-29
2022/03/22 06:59:14;;;;;;;6.20;3.72;;;;;;;14.96;21.61;98263.69;5132005;27;20023;-28
2022/03/22 07:01:40;;;;;;;6.45;4.00;;;;;;;14.95;21.75;98267.59;5112584;28;20089;-28
2022/03/22 07:04:05;;;;;;;7.95;3.83;;;;;;;14.99;21.53;98271.81;5112088;28;20075;-29
2022/03/22 07:06:31;;;;;;;6.63;4.15;;;;;;;14.96;21.24;98278.09;5110854;28;20057;-28
2022/03/22 07:08:58;;;;;;;5.50;3.40;;;;;;;14.96;21.33;98280.06;5112374;28;20085;-29
2022/03/22 07:14:07;;;;;;;6.03;3.83;;;;;;;15.04;21.38;98285.03;5112418;28;20442;-28
2022/03/22 07:16:36;;;;;;;7.15;4.03;;;;;;;14.96;21.41;98286.28;5111930;28;20031;-30
2022/03/22 07:19:01;;;;;;;8.57;3.63;;;;;;;15.00;21.54;98288.97;5112355;28;20439;-27
2022/03/22 07:21:29;;;;;;;7.63;3.83;;;;;;;14.95;21.57;98290.22;5112402;28;20032;-29
2022/03/22 07:23:55;;;;;;;6.88;3.65;;;;;;;15.03;21.49;98288.16;5112173;28;20028;-29
2022/03/22 07:26:22;;;;;;;5.50;3.00;;;;;;;14.97;21.67;98287.84;5112001;28;20034;-28
2022/03/22 07:28:48;;;;;;;8.25;3.63;;;;;;;15.01;21.73;98290.53;5096115;28;20024;-29
2022/03/22 07:31:13;;;;;;;7.15;3.50;;;;;;;14.94;22.26;98290.63;5091694;28;20024;-30
2022/03/22 07:33:39;;;;;;;8.88;3.85;;;;;;;15.01;21.83;98287.81;5091671;28;20034;-30
2022/03/22 07:36:05;;;;;;;6.70;3.60;;;;;;;15.07;21.74;98294.38;5091793;28;20024;-28
2022/03/22 07:38:31;;;;;;;7.50;3.85;;;;;;;15.02;21.63;98284.66;5091553;28;20679;-28
2022/03/22 07:40:56;;;;;;;5.05;3.35;;;;;;;15.07;21.81;98291.63;5091739;28;20030;-28
2022/03/22 07:43:23;;;;;;;6.35;3.67;;;;;;;15.08;21.64;98298.66;5091650;28;20089;-28
2022/03/22 07:45:49;;;;;;;6.10;3.45;;;;;;;15.13;21.84;98291.94;5091482;28;20024;-28
2022/03/22 07:48:16;;;;;;;8.15;3.63;;;;;;;14.99;21.91;98290.94;5091726;28;20434;-27
2022/03/22 07:53:25;;;;;;;5.05;3.55;;;;;;;14.98;22.02;98289.38;5091510;28;20046;-30
2022/03/22 07:55:51;;;;;;;5.75;3.17;;;;;;;14.98;21.81;98294.84;5091440;28;20020;-27
2022/03/22 07:58:17;;;;;;;4.97;3.40;;;;;;;15.03;22.01;98296.38;5091468;28;20028;-29
2022/03/22 08:00:43;;;;;;;5.60;3.45;;;;;;;15.05;22.32;98299.47;5104471;28;20054;-29
2022/03/22 08:03:12;;;;;;;7.60;3.45;;;;;;;15.08;22.33;98298.66;5111675;28;20039;-28
2022/03/22 08:05:39;;;;;;;7.95;3.30;;;;;;;15.03;22.39;98302.59;5109722;28;20054;-29
2022/03/22 08:08:05;;;;;;;4.80;3.47;;;;;;;14.98;22.32;98296.81;5111796;28;20408;-27
2022/03/22 08:10:32;;;;;;;4.40;3.20;;;;;;;14.95;22.50;98301.16;5111655;28;20069;-27
2022/03/22 08:13:00;;;;;;;4.32;3.22;;;;;;;14.86;22.21;98303.59;5111497;28;20024;-29
2022/03/22 08:15:27;;;;;;;4.72;3.28;;;;;;;15.00;22.23;98303.41;5111374;28;20073;-29
2022/03/22 08:17:52;;;;;;;5.18;3.28;;;;;;;14.82;22.21;98299.38;5093297;28;20028;-30
2022/03/22 08:20:18;;;;;;;4.68;3.53;;;;;;;14.95;22.15;98303.13;5111419;28;20045;-29
2022/03/22 08:22:55;;;;;;;6.70;3.50;;;;;;;14.99;22.34;98301.09;5119390;28;20027;-28
2022/03/22 08:25:37;;;;;;;5.45;3.70;;;;;;;14.97;22.33;98312.44;5110709;28;20046;-29
2022/03/22 08:28:06;;;;;;;4.23;3.07;;;;;;;15.04;22.40;98309.63;5120908;27;20421;-30
2022/03/22 08:30:32;;;;;;;5.57;3.35;;;;;;;14.81;22.44;98314.22;5132073;27;20342;-29
2022/03/22 08:33:00;;;;;;;5.45;3.50;;;;;;;14.94;22.38;98310.53;5131699;27;20475;-28
2022/03/22 08:35:27;;;;;;;5.32;3.58;;;;;;;14.87;22.38;98305.16;5113334;27;20030;-29
2022/03/22 08:37:54;;;;;;;5.60;3.38;;;;;;;14.91;22.22;98307.84;5113324;28;20035;-28
2022/03/22 08:40:20;;;;;;;5.32;3.60;;;;;;;14.92;22.60;98307.44;5131652;27;20083;-28
2022/03/22 08:42:48;;;;;;;6.07;3.55;;;;;;;14.98;22.38;98307.75;5135484;27;20072;-28
2022/03/22 08:45:19;;;;;;;6.22;3.65;;;;;;;14.82;22.39;98302.09;5135730;27;20092;-29
2022/03/22 08:47:46;;;;;;;5.90;3.75;;;;;;;14.23;22.25;98302.31;5135481;27;20094;-29
2022/03/22 08:50:16;;;;;;;9.60;4.32;;;;;;;13.66;22.57;98305.53;5135932;27;20019;-26
2022/03/22 08:52:42;;;;;;;15.45;4.15;;;;;;;14.02;22.39;98306.03;5135410;27;20076;-27
2022/03/22 08:55:11;;;;;;;7.10;3.85;;;;;;;14.34;22.14;98303.00;5121392;27;20016;-26
2022/03/22 08:57:39;;;;;;;8.48;4.60;;;;;;;14.57;22.21;98303.16;5134888;27;20390;-28
2022/03/22 09:00:09;;;;;;;12.07;4.47;;;;;;;14.61;22.19;98292.97;5118948;27;20032;-26
2022/03/22 09:02:39;;;;;;;9.73;4.57;;;;;;;14.78;21.91;98302.13;5094166;28;20031;-27
2022/03/22 09:07:51;;;;;;;11.55;4.68;;;;;;;14.79;22.24;98298.22;5094437;28;20549;-27
2022/03/22 09:10:20;;;;;;;10.18;4.65;;;;;;;14.87;22.05;98299.69;5094535;28;20069;-28
2022/03/22 09:12:46;;;;;;;8.30;4.63;;;;;;;14.90;21.91;98298.09;5105070;28;20083;-26
2022/03/22 09:15:13;;;;;;;10.77;4.80;;;;;;;14.65;22.46;98292.94;5114780;27;20110;-26
2022/03/22 09:17:39;;;;;;;5.47;4.18;;;;;;;14.69;22.14;98299.91;5114320;28;20089;-27
2022/03/22 09:20:05;;;;;;;7.63;4.43;;;;;;;14.73;22.04;98289.69;5114698;28;20425;-27
2022/03/22 09:22:31;;;;;;;7.45;4.10;;;;;;;14.68;22.27;98292.91;5114469;28;20027;-27
2022/03/22 09:24:56;;;;;;;9.45;4.40;;;;;;;14.86;22.02;98292.66;5113867;28;20110;-26
2022/03/22 09:27:23;;;;;;;7.15;4.15;;;;;;;14.72;22.12;98296.34;5095920;28;20020;-26
2022/03/22 09:29:49;;;;;;;6.72;4.43;;;;;;;14.77;22.35;98294.34;5095809;28;20365;-27
2022/03/22 09:32:14;;;;;;;10.30;4.72;;;;;;;14.37;22.23;98299.44;5095848;28;20028;-27
2022/03/22 09:34:40;;;;;;;7.95;4.72;;;;;;;14.60;21.82;98285.94;5095088;28;20027;-27
2022/03/22 09:37:07;;;;;;;7.72;5.00;;;;;;;14.71;22.02;98289.31;5095251;28;20099;-27
2022/03/22 09:39:36;;;;;;;7.47;4.70;;;;;;;14.83;22.17;98287.28;5095804;28;20472;-27
2022/03/22 09:42:03;;;;;;;26.50;5.78;;;;;;;14.74;21.59;98288.53;5095913;28;20120;-26
2022/03/22 09:44:29;;;;;;;10.00;4.43;;;;;;;14.66;20.76;98289.78;5095626;28;20077;-27
2022/03/22 09:46:55;;;;;;;7.20;4.00;;;;;;;14.49;21.86;98279.84;5096105;28;20024;-26
2022/03/22 09:49:22;;;;;;;8.73;4.45;;;;;;;14.77;22.24;98289.66;5095618;28;20497;-27
2022/03/22 09:51:48;;;;;;;7.45;4.28;;;;;;;14.95;22.82;98287.50;5095198;28;20023;-26
2022/03/22 09:54:22;;;;;;;12.18;5.00;;;;;;;14.85;21.38;98285.66;5094740;28;20019;-26
2022/03/22 09:56:48;;;;;;;9.00;4.40;;;;;;;14.99;22.84;98292.91;5095713;28;20019;-28
2022/03/22 09:59:17;;;;;;;8.38;4.30;;;;;;;14.88;22.64;98282.09;5095968;28;20111;-27
2022/03/22 10:01:44;;;;;;;5.72;3.92;;;;;;;15.01;22.79;98282.34;5115840;28;20035;-27
2022/03/22 10:04:13;;;;;;;7.72;4.70;;;;;;;15.08;23.07;98288.47;5133591;27;20022;-26
2022/03/22 10:07:02;;;;;;;6.18;4.00;;;;;;;14.98;21.91;98277.69;5136225;27;20027;-26
2022/03/22 10:09:30;;;;;;;5.60;3.83;;;;;;;14.90;23.04;98284.44;5136171;27;20106;-26
2022/03/22 10:11:56;;;;;;;8.98;4.50;;;;;;;15.10;23.00;98279.88;5136186;27;20030;-26
2022/03/22 10:14:32;;;;;;;9.38;4.35;;;;;;;14.81;22.35;98278.69;5136072;27;20460;-27
2022/03/22 10:16:58;;;;;;;6.57;4.45;;;;;;;14.95;23.02;98286.72;5135922;27;20081;-27
2022/03/22 10:19:26;;;;;;;7.47;4.13;;;;;;;15.02;23.13;98281.16;5135916;27;20466;-27
2022/03/22 10:21:53;;;;;;;6.80;4.45;;;;;;;14.95;23.12;98281.25;5135958;27;20106;-27
2022/03/22 10:24:20;;;;;;;7.60;4.60;;;;;;;15.00;22.76;98280.78;5135666;27;20016;-26
2022/03/22 10:26:47;;;;;;;5.78;3.90;;;;;;;15.01;22.57;98282.34;5136088;27;20076;-27
2022/03/22 10:29:16;;;;;;;6.43;4.25;;;;;;;15.05;23.32;98277.59;5135813;27;20475;-27
2022/03/22 10:31:43;;;;;;;4.28;3.53;;;;;;;15.07;23.08;98264.31;5135483;27;20034;-26
2022/03/22 10:34:10;;;;;;;7.80;4.60;;;;;;;14.71;21.76;98270.22;5135598;27;20364;-26
2022/03/22 10:36:38;;;;;;;6.97;3.97;;;;;;;15.05;23.20;98263.94;5135562;27;20075;-27
2022/03/22 10:39:06;;;;;;;7.35;4.72;;;;;;;15.05;23.21;98269.41;5135480;27;20390;-27
2022/03/22 10:41:37;;;;;;;6.70;4.43;;;;;;;15.02;23.09;98271.00;5135462;27;20102;-27
2022/03/22 10:44:10;;;;;;;5.95;4.25;;;;;;;14.97;21.30;98260.50;5135447;27;20023;-26
2022/03/22 10:46:38;;;;;;;7.22;4.15;;;;;;;14.89;21.72;98261.03;5135586;27;20493;-26
2022/03/22 10:49:09;;;;;;;5.38;3.85;;;;;;;15.05;23.11;98258.47;5135245;27;20049;-26
2022/03/22 10:51:49;;;;;;;6.30;4.18;;;;;;;15.09;23.15;98262.69;5135479;27;20019;-28
2022/03/22 10:54:18;;;;;;;5.82;4.22;;;;;;;15.12;23.27;98260.31;5135134;27;20038;-26
2022/03/22 10:56:53;;;;;;;5.35;3.85;;;;;;;15.12;22.23;98257.59;5135692;27;20102;-27
2022/03/22 10:59:21;;;;;;;5.60;3.88;;;;;;;15.19;23.53;98258.28;5134878;27;20030;-27
2022/03/22 11:01:48;;;;;;;7.10;4.13;;;;;;;15.22;23.42;98254.72;5135054;27;20107;-27
2022/03/22 11:04:19;;;;;;;6.45;4.50;;;;;;;15.21;23.37;98255.88;5134555;27;20022;-27
2022/03/22 11:06:49;;;;;;;8.55;4.45;;;;;;;15.20;23.44;98254.38;5116584;27;20387;-27
2022/03/22 11:09:20;;;;;;;7.80;4.13;;;;;;;15.30;23.28;98253.44;5135227;27;20019;-27
2022/03/22 11:11:47;;;;;;;6.82;4.32;;;;;;;15.17;23.65;98248.94;5135116;27;20034;-26
2022/03/22 11:14:15;;;;;;;8.00;4.35;;;;;;;15.23;23.57;98250.00;5134817;27;20051;-27
2022/03/22 11:16:42;;;;;;;6.75;4.32;;;;;;;15.27;23.63;98256.97;5134879;27;20126;-26
2022/03/22 11:19:09;;;;;;;5.88;4.32;;;;;;;15.28;23.24;98253.06;5134848;27;20030;-28
2022/03/22 11:21:37;;;;;;;7.35;4.45;;;;;;;15.28;23.46;98247.59;5134753;27;20055;-28
2022/03/22 11:24:08;;;;;;;6.40;4.53;;;;;;;15.34;23.25;98248.66;5134577;27;20051;-29
2022/03/22 11:26:45;;;;;;;5.65;4.15;;;;;;;15.24;23.62;98241.41;5113655;27;20031;-27
2022/03/22 11:29:13;;;;;;;4.50;3.60;;;;;;;15.20;23.65;98243.44;5133359;27;20441;-27
2022/03/22 11:31:40;;;;;;;7.78;4.55;;;;;;;15.28;23.63;98244.88;5134683;27;20019;-28
2022/03/22 11:34:09;;;;;;;7.85;4.80;;;;;;;15.33;23.38;98232.72;5134924;27;20019;-27
2022/03/22 11:36:40;;;;;;;8.05;4.60;;;;;;;15.28;23.17;98236.66;5134525;27;20052;-29
2022/03/22 11:39:07;;;;;;;8.35;4.78;;;;;;;15.31;23.35;98235.84;5134534;27;20027;-26
2022/03/22 11:44:29;;;;;;;5.93;4.45;;;;;;;15.40;23.19;98232.59;5134638;27;20026;-27
2022/03/22 11:47:09;;;;;;;5.85;4.03;;;;;;;15.37;23.39;98217.78;5134546;27;20029;-27
2022/03/22 11:49:57;;;;;;;7.72;4.43;;;;;;;15.38;23.45;98219.31;5134447;27;20019;-28
2022/03/22 11:52:35;;;;;;;7.90;4.53;;;;;;;15.31;22.89;98213.97;5134380;27;20037;-27
2022/03/22 11:55:07;;;;;;;12.88;5.20;;;;;;;15.20;22.97;98223.53;5134449;28;20047;-27
2022/03/22 11:57:52;;;;;;;8.63;5.68;;;;;;;15.35;23.16;98219.38;5115678;28;20038;-28
2022/03/22 12:00:21;;;;;;;8.00;4.55;;;;;;;15.40;23.20;98203.28;5134167;28;20050;-29
2022/03/22 12:02:53;;;;;;;8.82;5.35;;;;;;;15.34;23.34;98201.41;5134126;28;20023;-27
2022/03/22 12:05:20;;;;;;;9.07;5.60;;;;;;;15.45;22.88;98202.06;5115728;28;20054;-27